createdAt,value
2018-12-16T00:01:43.136Z,9.80
2018-12-16T00:06:42.325Z,9.76
2018-12-16T00:11:50.216Z,10.27
2018-12-16T00:16:59.709Z,10.75
2018-12-16T00:22:08.999Z,9.39
2018-12-16T00:27:18.792Z,9.07
2018-12-16T00:32:28.267Z,10.80
2018-12-16T00:37:37.937Z,8.01
2018-12-16T00:42:47.244Z,8.64
2018-12-16T00:47:56.842Z,10.33
2018-12-16T00:53:06.264Z,8.69
2018-12-16T00:58:15.998Z,9.12
2018-12-16T01:03:25.376Z,8.37
2018-12-16T01:08:34.993Z,8.71
2018-12-16T01:13:44.324Z,9.95
2018-12-16T01:18:54.007Z,8.57
2018-12-16T01:24:03.506Z,8.23
2018-12-16T01:29:13.182Z,8.76
2018-12-16T01:34:22.573Z,8.14
2018-12-16T01:39:32.236Z,7.68
2018-12-16T01:44:41.625Z,8.73
2018-12-16T01:49:51.293Z,8.22
2018-12-16T01:55:00.597Z,9.55
2018-12-16T02:00:10.049Z,7.58
2018-12-16T02:05:19.488Z,8.25
2018-12-16T02:10:27.600Z,7.79
2018-12-16T02:15:36.981Z,7.90
2018-12-16T02:20:46.544Z,8.14
2018-12-16T02:25:54.310Z,7.71
2018-12-16T02:31:04.049Z,7.83
2018-12-16T02:36:13.373Z,7.98
2018-12-16T02:41:22.924Z,8.49
2018-12-16T02:46:32.342Z,7.04
2018-12-16T02:51:41.680Z,7.30
2018-12-16T02:56:50.896Z,8.05
2018-12-16T03:02:00.612Z,7.46
2018-12-16T03:07:10.090Z,8.19
2018-12-16T03:12:19.696Z,7.72
2018-12-16T03:17:29.042Z,7.77
2018-12-16T03:22:38.875Z,8.10
2018-12-16T03:27:48.142Z,8.12
2018-12-16T03:32:57.748Z,7.99
2018-12-16T03:38:07.171Z,6.65
2018-12-16T03:43:16.739Z,7.59
2018-12-16T03:48:24.758Z,6.57
2018-12-16T03:53:34.242Z,7.29
2018-12-16T03:58:43.739Z,7.68
2018-12-16T04:03:53.311Z,7.21
2018-12-16T04:09:02.736Z,6.94
2018-12-16T04:14:12.233Z,6.93
2018-12-16T04:19:21.539Z,6.45
2018-12-16T04:24:31.089Z,7.63
2018-12-16T04:29:40.391Z,6.68
2018-12-16T04:34:50.170Z,7.36
2018-12-16T04:39:59.629Z,6.95
2018-12-16T04:45:09.221Z,7.03
2018-12-16T04:50:18.558Z,7.46
2018-12-16T04:55:28.311Z,7.56
2018-12-16T05:00:37.658Z,7.02
2018-12-16T05:05:45.661Z,6.77
2018-12-16T05:10:55.033Z,7.25
2018-12-16T05:16:04.690Z,6.85
2018-12-16T05:21:13.987Z,7.69
2018-12-16T05:26:23.519Z,6.31
2018-12-16T05:31:32.936Z,6.50
2018-12-16T05:36:42.446Z,6.77
2018-12-16T05:41:51.746Z,6.58
2018-12-16T05:47:01.426Z,6.45
2018-12-16T05:52:10.928Z,6.32
2018-12-16T05:57:20.581Z,6.78
2018-12-16T06:02:29.966Z,6.56
2018-12-16T06:07:39.405Z,6.70
2018-12-16T06:12:48.728Z,7.28
2018-12-16T06:17:58.407Z,7.71
2018-12-16T06:23:07.838Z,7.28
2018-12-16T06:28:17.499Z,7.53
2018-12-16T06:33:26.933Z,6.90
2018-12-16T06:38:36.805Z,6.86
2018-12-16T06:43:46.103Z,6.71
2018-12-16T06:48:55.796Z,9.58
2018-12-16T06:54:05.175Z,8.80
2018-12-16T06:59:14.702Z,38.59
2018-12-16T07:04:28.936Z,35.04
2018-12-16T07:09:28.380Z,31.42
2018-12-16T07:14:37.806Z,32.13
2018-12-16T07:19:47.706Z,26.56
2018-12-16T07:24:56.992Z,25.30
2018-12-16T07:30:06.559Z,25.50
2018-12-16T07:35:16.048Z,26.51
2018-12-16T07:40:25.620Z,28.86
2018-12-16T07:45:33.592Z,23.31
2018-12-16T07:50:43.181Z,27.40
2018-12-16T07:55:52.451Z,23.94
2018-12-16T08:01:00.701Z,34.79
2018-12-16T08:06:10.077Z,25.94
2018-12-16T08:11:19.722Z,32.33
2018-12-16T08:16:29.278Z,28.56
2018-12-16T08:21:38.897Z,29.69
2018-12-16T08:26:48.297Z,22.27
2018-12-16T08:31:57.944Z,25.39
2018-12-16T08:37:05.858Z,20.65
2018-12-16T08:42:15.805Z,22.22
2018-12-16T08:47:25.040Z,18.07
2018-12-16T08:52:34.600Z,20.70
2018-12-16T08:57:44.021Z,20.54
2018-12-16T09:02:53.889Z,16.22
2018-12-16T09:08:03.157Z,16.79
2018-12-16T09:13:11.333Z,19.06
2018-12-16T09:18:20.601Z,16.41
2018-12-16T09:23:30.352Z,16.03
2018-12-16T09:28:39.781Z,14.76
2018-12-16T09:33:49.510Z,14.47
2018-12-16T09:38:58.909Z,15.51
2018-12-16T09:44:08.382Z,19.23
2018-12-16T09:49:17.729Z,24.83
2018-12-16T09:54:27.365Z,26.13
2018-12-16T09:59:36.681Z,35.56
2018-12-16T10:04:46.394Z,47.31
2018-12-16T10:09:55.713Z,33.19
2018-12-16T10:15:05.390Z,35.73
2018-12-16T10:20:14.829Z,29.47
2018-12-16T10:25:24.270Z,35.77
2018-12-16T10:30:32.109Z,31.25
2018-12-16T10:35:41.903Z,33.91
2018-12-16T10:40:51.437Z,37.71
2018-12-16T10:46:00.933Z,36.82
2018-12-16T10:51:10.257Z,31.64
2018-12-16T10:56:19.892Z,33.65
2018-12-16T11:01:29.231Z,35.07
2018-12-16T11:06:43.823Z,35.52
2018-12-16T11:11:42.907Z,36.63
2018-12-16T11:16:52.253Z,36.25
2018-12-16T11:22:01.477Z,34.39
2018-12-16T11:27:10.993Z,33.02
2018-12-16T11:32:20.393Z,35.40
2018-12-16T11:37:29.846Z,29.52
2018-12-16T11:42:39.119Z,31.42
2018-12-16T11:47:48.457Z,34.89
2018-12-16T11:52:57.678Z,31.09
2018-12-16T11:58:07.184Z,35.96
2018-12-16T12:03:16.502Z,132.65
2018-12-16T12:08:25.137Z,169.09
2018-12-16T12:13:34.409Z,167.66
2018-12-16T12:18:43.998Z,153.95
2018-12-16T12:23:53.305Z,152.23
2018-12-16T12:29:02.881Z,142.22
2018-12-16T12:34:12.414Z,137.31
2018-12-16T12:39:21.906Z,129.54
2018-12-16T12:44:31.211Z,118.64
2018-12-16T12:49:44.928Z,117.32
2018-12-16T12:54:52.462Z,118.79
2018-12-16T12:59:51.893Z,110.92
2018-12-16T13:05:01.156Z,101.00
2018-12-16T13:10:10.821Z,101.81
2018-12-16T13:15:20.098Z,94.13
2018-12-16T13:20:33.702Z,94.32
2018-12-16T13:25:34.891Z,88.64
2018-12-16T13:30:42.086Z,83.11
2018-12-16T13:35:51.409Z,80.54
2018-12-16T13:41:01.206Z,76.19
2018-12-16T13:46:10.433Z,73.02
2018-12-16T13:51:20.185Z,69.08
2018-12-16T13:56:29.625Z,63.17
2018-12-16T14:01:39.284Z,68.29
2018-12-16T14:06:48.677Z,63.25
2018-12-16T14:11:58.189Z,62.00
2018-12-16T14:17:07.582Z,64.03
2018-12-16T14:22:21.308Z,60.26
2018-12-16T14:27:20.448Z,58.85
2018-12-16T14:32:30.293Z,57.24
2018-12-16T14:37:39.662Z,57.58
2018-12-16T14:42:49.553Z,60.58
2018-12-16T14:47:59.839Z,50.15
2018-12-16T14:52:57.798Z,52.94
2018-12-16T14:58:07.218Z,51.15
2018-12-16T15:03:16.666Z,50.51
2018-12-16T15:08:25.953Z,46.24
2018-12-16T15:13:35.453Z,48.57
2018-12-16T15:18:44.713Z,44.55
2018-12-16T15:23:54.925Z,47.73
2018-12-16T15:28:54.109Z,41.51
2018-12-16T15:34:03.623Z,40.11
2018-12-16T15:39:12.977Z,38.88
2018-12-16T15:44:22.565Z,42.62
2018-12-16T15:49:31.914Z,38.15
2018-12-16T15:54:42.143Z,42.66
2018-12-16T15:59:41.344Z,37.16
2018-12-16T16:04:51.099Z,39.22
2018-12-16T16:09:59.069Z,40.35
2018-12-16T16:15:08.534Z,35.15
2018-12-16T16:20:17.985Z,36.54
2018-12-16T16:25:27.672Z,34.23
2018-12-16T16:30:37.009Z,33.46
2018-12-16T16:35:48.150Z,39.70
2018-12-16T16:40:47.575Z,41.85
2018-12-16T16:45:57.843Z,37.06
2018-12-16T16:50:57.223Z,42.85
2018-12-16T16:56:06.904Z,43.29
2018-12-16T17:01:16.273Z,39.92
2018-12-16T17:06:26.051Z,39.19
2018-12-16T17:11:35.527Z,37.36
2018-12-16T17:16:45.049Z,40.19
2018-12-16T17:21:54.435Z,40.45
2018-12-16T17:27:03.840Z,35.23
2018-12-16T17:32:13.120Z,41.77
2018-12-16T17:37:22.636Z,39.17
2018-12-16T17:42:31.957Z,48.19
2018-12-16T17:47:39.902Z,46.83
2018-12-16T17:52:47.700Z,42.68
2018-12-16T17:57:57.340Z,48.13
2018-12-16T18:03:06.558Z,38.08
2018-12-16T18:08:16.311Z,47.73
2018-12-16T18:13:25.625Z,44.12
2018-12-16T18:18:35.352Z,41.50
2018-12-16T18:23:44.915Z,39.47
2018-12-16T18:28:54.769Z,42.26
2018-12-16T18:34:04.129Z,43.26
2018-12-16T18:39:13.706Z,38.23
2018-12-16T18:44:23.130Z,43.00
2018-12-16T18:49:32.500Z,100.65
2018-12-16T18:54:41.958Z,148.72
2018-12-16T18:56:58.254Z,134.36
2018-12-16T18:58:59.851Z,137.85
2018-12-16T19:03:59.059Z,119.26
2018-12-16T19:09:07.116Z,113.68
2018-12-16T19:14:16.588Z,108.29
2018-12-16T19:19:26.633Z,101.16
2018-12-16T19:24:25.793Z,99.03
2018-12-16T19:29:35.148Z,99.58
2018-12-16T19:34:44.374Z,90.04
2018-12-16T19:39:53.798Z,93.43
2018-12-16T19:45:01.709Z,89.21
2018-12-16T19:50:11.389Z,88.85
2018-12-16T19:55:21.220Z,86.26
2018-12-16T20:00:30.708Z,87.05
2018-12-16T20:05:38.496Z,84.50
2018-12-16T20:10:48.148Z,90.84
2018-12-16T20:17:24.548Z,86.97
2018-12-16T20:22:24.335Z,76.49
2018-12-16T20:27:33.581Z,76.67
2018-12-16T20:32:43.267Z,70.53
2018-12-16T20:37:52.628Z,68.99
2018-12-16T20:43:02.270Z,70.54
2018-12-16T20:48:11.544Z,68.12
2018-12-16T20:53:20.967Z,67.08
2018-12-16T20:58:30.309Z,64.62
2018-12-16T21:03:39.902Z,62.98
2018-12-16T21:08:49.397Z,59.99
2018-12-16T21:13:59.000Z,60.14
2018-12-16T21:19:08.451Z,62.32
2018-12-16T21:24:18.016Z,61.61
2018-12-16T21:29:27.362Z,58.21
2018-12-16T21:34:37.042Z,63.04
2018-12-16T21:39:46.479Z,62.59
2018-12-16T21:44:56.405Z,62.33
2018-12-16T21:50:05.841Z,58.29
2018-12-16T21:55:13.959Z,61.01
2018-12-16T22:00:23.345Z,61.72
2018-12-16T22:05:33.668Z,60.84
2018-12-16T22:10:32.932Z,59.86
2018-12-16T22:15:42.595Z,62.82
2018-12-16T22:20:51.863Z,64.15
2018-12-16T22:26:01.261Z,65.39
2018-12-16T22:31:10.919Z,65.06
2018-12-16T22:36:20.507Z,60.37
2018-12-16T22:41:29.856Z,63.58
2018-12-16T22:46:39.513Z,61.01
2018-12-16T22:51:48.787Z,60.13
2018-12-16T22:56:58.405Z,62.95
2018-12-16T23:02:07.738Z,61.94
2018-12-16T23:07:17.432Z,62.62
2018-12-16T23:12:26.865Z,61.76
2018-12-16T23:17:36.551Z,60.31
2018-12-16T23:22:45.915Z,61.31
2018-12-16T23:27:54.474Z,63.10
2018-12-16T23:33:03.564Z,59.89
2018-12-16T23:38:13.239Z,59.31
2018-12-16T23:43:22.620Z,59.77
2018-12-16T23:48:32.164Z,60.77
2018-12-16T23:53:41.491Z,57.75
2018-12-16T23:58:51.349Z,59.36
